Search for airport 
image banner adimage banner adimage banner ad
image banner ad

9CA5 - California Mart

Located in Los Angeles, United States

ICAO - 9CA5, IATA -

Data provided by Airmate  

General information

Coordinates: N34°2'25" W118°15'22"
Elevation is 434 feet MSL.
Magnetic variation is 14° East
View others Airports in California

Operational data

Special qualification required
Current time UTC:
Current local time:
METAR: KHHR 150853Z AUTO 00000KT 10SM CLR 18/14 A2987 RMK AO2 SLP114 T01830139 56004
View NOTAMs / SUP AIP / TFR affecting this airport [VIEW]
Communications frequencies: [VIEW]

Runways:

Airport contact information

Address: Los Angeles United States

Satellite view of 9CA5